00:48
Airports
History
Links
Donate
Help keep this website running!
PayPal
Bitcoin
This page is community maintained. The information is intended for PC simulator navigation or reference.
Always use approved charts for navigation.
EDVA
Bad Gandersheim
Bad Gandersheim (EDVA)
Bad Gandersheim, Niedersachsen, Germany (37581)
4
Lat/Lng:51° 51' 18" N / 10° 1' 30" E
51.855 / 10.025
Elevation:525'ft / 160mMSL
ID / ICAO:EDVA
Runways:1
Longest:36-18
Grass 724m / 2,376ft
Nearby Weather14:50 GMT 2017-09-24
Nearby weather at EDVE, Braunschweig-Wolfsburg located 39.1 nautical miles from EDVA
Altimeter: 30.18
Visibility: 6.2 statute miles
Wind: 4 knots (from 070°)
Temp: 15°c / 59°f
Humidity: 100.0%

METAR: EDVE 241450Z 07004KT 040V100 9999 SCT005 BKN009 OVC011 15/15 Q1022

(Powered by phpweather)
Nearby VORs <50NM
Nearby NDBs
Runway 36 / 18
Dimensions:724.2 x 27.4m 2376' x 90'ft
Surface:Grass
Runway 36 [A]Runway 18 [B]
Heading:355°TH 175°TH
Lat:
Lng:
51° 51' 6.29"N
10° 1' 31.33"E
51° 51' 29.71"N
10° 1' 28.67"E
User Notes and Comments
51° 51' 18" N / 10° 1' 30" E
Distance To
Airport ID:
Nearby Airports
4 Northeim 10.3 NM
EDVN S 176°
(C) Hildesheim 22.7 NM
EDVM N 351°
(C) Salzgitter Druette 26.8 NM
EDVS NE 39°
(C) Hoexter-Holzminden 27.7 NM
EDVI W 263°
(U) Bad Pyrmont 32.2 NM
EDVW WNW 284°
(C) Peine Eddesse 38.8 NM
EDVP NNE 14°
(C) Braunschweig-Wolfsburg 39.1 NM
EDVE ( WX ) NE 35°
VFR Chart
Flight Planning at SkyVector.com